sensor_id;sensor_type;location;lat;lon;timestamp;pressure;altitude;pressure_sealevel;temperature;humidity
21817;BME280;13247;47.504;7.382;2023-06-24T00:00:09;98055.81;;;17.50;100.00
21817;BME280;13247;47.504;7.382;2023-06-24T00:02:57;98064.94;;;17.62;100.00
21817;BME280;13247;47.504;7.382;2023-06-24T00:05:47;98064.06;;;17.43;100.00
21817;BME280;13247;47.504;7.382;2023-06-24T00:08:33;98061.13;;;17.30;100.00
21817;BME280;13247;47.504;7.382;2023-06-24T00:11:21;98069.78;;;17.15;100.00
21817;BME280;13247;47.504;7.382;2023-06-24T00:14:06;98064.16;;;17.22;100.00
21817;BME280;13247;47.504;7.382;2023-06-24T00:16:52;98068.00;;;17.15;100.00
21817;BME280;13247;47.504;7.382;2023-06-24T00:19:37;98071.44;;;17.17;100.00
21817;BME280;13247;47.504;7.382;2023-06-24T00:22:21;98067.91;;;16.98;100.00
21817;BME280;13247;47.504;7.382;2023-06-24T00:25:07;98075.00;;;16.98;100.00
21817;BME280;13247;47.504;7.382;2023-06-24T00:27:52;98069.16;;;17.10;100.00
21817;BME280;13247;47.504;7.382;2023-06-24T00:30:36;98073.00;;;17.03;100.00
21817;BME280;13247;47.504;7.382;2023-06-24T00:33:21;98066.13;;;16.99;100.00
21817;BME280;13247;47.504;7.382;2023-06-24T00:36:06;98055.41;;;16.82;100.00
21817;BME280;13247;47.504;7.382;2023-06-24T00:38:56;98058.72;;;16.87;100.00
21817;BME280;13247;47.504;7.382;2023-06-24T00:41:41;98057.56;;;17.12;100.00
21817;BME280;13247;47.504;7.382;2023-06-24T00:44:27;98058.84;;;17.41;100.00
21817;BME280;13247;47.504;7.382;2023-06-24T00:47:12;98061.34;;;17.25;100.00
21817;BME280;13247;47.504;7.382;2023-06-24T00:49:57;98058.75;;;17.24;100.00
21817;BME280;13247;47.504;7.382;2023-06-24T00:52:42;98056.38;;;16.99;100.00
21817;BME280;13247;47.504;7.382;2023-06-24T00:55:27;98063.72;;;17.32;100.00
21817;BME280;13247;47.504;7.382;2023-06-24T00:58:13;98065.34;;;17.34;100.00
21817;BME280;13247;47.504;7.382;2023-06-24T01:01:00;98064.16;;;17.22;100.00
21817;BME280;13247;47.504;7.382;2023-06-24T01:03:46;98062.78;;;17.14;100.00
21817;BME280;13247;47.504;7.382;2023-06-24T01:06:31;98059.53;;;17.07;100.00
21817;BME280;13247;47.504;7.382;2023-06-24T01:09:17;98069.28;;;17.07;100.00
21817;BME280;13247;47.504;7.382;2023-06-24T01:12:02;98071.22;;;17.03;100.00
21817;BME280;13247;47.504;7.382;2023-06-24T01:14:47;98075.25;;;17.12;100.00
21817;BME280;13247;47.504;7.382;2023-06-24T01:33:54;98069.78;;;16.56;100.00
21817;BME280;13247;47.504;7.382;2023-06-24T01:36:56;98070.94;;;16.51;100.00
21817;BME280;13247;47.504;7.382;2023-06-24T01:42:57;98073.22;;;16.38;100.00
21817;BME280;13247;47.504;7.382;2023-06-24T01:45:48;98074.91;;;16.19;100.00
21817;BME280;13247;47.504;7.382;2023-06-24T01:48:35;98068.22;;;16.30;100.00
21817;BME280;13247;47.504;7.382;2023-06-24T01:51:23;98070.22;;;16.25;100.00
21817;BME280;13247;47.504;7.382;2023-06-24T01:54:13;98072.16;;;16.22;100.00
21817;BME280;13247;47.504;7.382;2023-06-24T01:57:00;98072.72;;;16.08;100.00
21817;BME280;13247;47.504;7.382;2023-06-24T01:59:49;98070.25;;;16.04;100.00
21817;BME280;13247;47.504;7.382;2023-06-24T02:02:37;98065.75;;;16.06;100.00
21817;BME280;13247;47.504;7.382;2023-06-24T02:05:24;98066.28;;;15.94;100.00
21817;BME280;13247;47.504;7.382;2023-06-24T02:08:10;98066.56;;;16.08;100.00
21817;BME280;13247;47.504;7.382;2023-06-24T02:10:56;98068.94;;;16.14;100.00
21817;BME280;13247;47.504;7.382;2023-06-24T02:13:43;98072.69;;;16.30;100.00
21817;BME280;13247;47.504;7.382;2023-06-24T02:16:29;98066.53;;;16.29;100.00
21817;BME280;13247;47.504;7.382;2023-06-24T02:19:15;98068.84;;;16.37;100.00
21817;BME280;13247;47.504;7.382;2023-06-24T02:22:02;98070.69;;;16.35;100.00
21817;BME280;13247;47.504;7.382;2023-06-24T02:24:50;98063.47;;;16.18;100.00
21817;BME280;13247;47.504;7.382;2023-06-24T02:27:36;98056.31;;;16.20;100.00
21817;BME280;13247;47.504;7.382;2023-06-24T02:30:22;98060.38;;;16.07;100.00
21817;BME280;13247;47.504;7.382;2023-06-24T02:33:08;98059.81;;;15.79;100.00
21817;BME280;13247;47.504;7.382;2023-06-24T02:35:53;98061.16;;;15.89;100.00
21817;BME280;13247;47.504;7.382;2023-06-24T02:38:38;98061.97;;;15.91;100.00
21817;BME280;13247;47.504;7.382;2023-06-24T02:41:23;98066.09;;;15.98;100.00
21817;BME280;13247;47.504;7.382;2023-06-24T02:44:08;98062.38;;;16.02;100.00
21817;BME280;13247;47.504;7.382;2023-06-24T02:46:53;98067.59;;;16.04;100.00
21817;BME280;13247;47.504;7.382;2023-06-24T02:49:40;98075.53;;;16.04;100.00
21817;BME280;13247;47.504;7.382;2023-06-24T02:52:27;98070.25;;;16.04;100.00
21817;BME280;13247;47.504;7.382;2023-06-24T02:55:14;98066.28;;;16.14;100.00
21817;BME280;13247;47.504;7.382;2023-06-24T02:58:00;98060.97;;;16.15;100.00
21817;BME280;13247;47.504;7.382;2023-06-24T03:00:46;98074.03;;;16.18;100.00
21817;BME280;13247;47.504;7.382;2023-06-24T03:03:32;98071.53;;;16.15;100.00
21817;BME280;13247;47.504;7.382;2023-06-24T03:06:18;98070.25;;;15.82;100.00
21817;BME280;13247;47.504;7.382;2023-06-24T03:09:04;98079.63;;;15.69;100.00
21817;BME280;13247;47.504;7.382;2023-06-24T03:11:48;98079.97;;;15.60;100.00
21817;BME280;13247;47.504;7.382;2023-06-24T03:14:33;98083.72;;;15.54;100.00
21817;BME280;13247;47.504;7.382;2023-06-24T03:17:17;98077.59;;;15.54;100.00
21817;BME280;13247;47.504;7.382;2023-06-24T03:20:02;98079.72;;;15.44;100.00
21817;BME280;13247;47.504;7.382;2023-06-24T03:22:48;98082.47;;;15.41;100.00
21817;BME280;13247;47.504;7.382;2023-06-24T03:25:33;98084.56;;;15.32;100.00
21817;BME280;13247;47.504;7.382;2023-06-24T03:28:18;98089.41;;;15.21;100.00
21817;BME280;13247;47.504;7.382;2023-06-24T03:31:02;98090.09;;;15.26;100.00
21817;BME280;13247;47.504;7.382;2023-06-24T03:33:47;98096.31;;;15.25;100.00
21817;BME280;13247;47.504;7.382;2023-06-24T03:36:31;98099.75;;;15.04;100.00
21817;BME280;13247;47.504;7.382;2023-06-24T03:39:19;98102.97;;;15.12;100.00
21817;BME280;13247;47.504;7.382;2023-06-24T03:42:05;98106.28;;;15.40;100.00
21817;BME280;13247;47.504;7.382;2023-06-24T03:44:49;98096.66;;;15.39;100.00
21817;BME280;13247;47.504;7.382;2023-06-24T03:47:34;98107.16;;;15.17;100.00
21817;BME280;13247;47.504;7.382;2023-06-24T03:50:18;98108.59;;;15.03;100.00
21817;BME280;13247;47.504;7.382;2023-06-24T03:53:04;98106.41;;;15.14;100.00
21817;BME280;13247;47.504;7.382;2023-06-24T03:55:49;98112.91;;;15.05;100.00
21817;BME280;13247;47.504;7.382;2023-06-24T03:58:34;98110.84;;;15.13;100.00
21817;BME280;13247;47.504;7.382;2023-06-24T04:01:18;98111.56;;;15.17;100.00
21817;BME280;13247;47.504;7.382;2023-06-24T04:04:04;98118.13;;;15.30;100.00
21817;BME280;13247;47.504;7.382;2023-06-24T04:06:48;98114.13;;;15.20;100.00
21817;BME280;13247;47.504;7.382;2023-06-24T04:09:36;98116.63;;;15.23;100.00
21817;BME280;13247;47.504;7.382;2023-06-24T04:12:21;98113.97;;;15.47;100.00
21817;BME280;13247;47.504;7.382;2023-06-24T04:15:06;98111.09;;;15.53;100.00
21817;BME280;13247;47.504;7.382;2023-06-24T04:17:52;98119.81;;;15.55;100.00
21817;BME280;13247;47.504;7.382;2023-06-24T04:20:36;98118.88;;;15.56;100.00
21817;BME280;13247;47.504;7.382;2023-06-24T04:23:21;98118.84;;;15.58;100.00
21817;BME280;13247;47.504;7.382;2023-06-24T04:26:06;98118.31;;;15.48;100.00
21817;BME280;13247;47.504;7.382;2023-06-24T04:28:50;98119.19;;;15.49;100.00
21817;BME280;13247;47.504;7.382;2023-06-24T04:31:35;98123.00;;;15.40;100.00
21817;BME280;13247;47.504;7.382;2023-06-24T04:34:19;98119.81;;;15.32;100.00
21817;BME280;13247;47.504;7.382;2023-06-24T04:37:04;98115.81;;;15.45;100.00
21817;BME280;13247;47.504;7.382;2023-06-24T04:39:48;98116.19;;;15.58;100.00
21817;BME280;13247;47.504;7.382;2023-06-24T04:42:33;98119.81;;;15.55;100.00
21817;BME280;13247;47.504;7.382;2023-06-24T04:45:17;98122.94;;;15.65;100.00
21817;BME280;13247;47.504;7.382;2023-06-24T04:48:02;98119.75;;;15.57;100.00
21817;BME280;13247;47.504;7.382;2023-06-24T04:50:46;98123.25;;;15.57;100.00
21817;BME280;13247;47.504;7.382;2023-06-24T04:53:31;98124.75;;;15.64;100.00
21817;BME280;13247;47.504;7.382;2023-06-24T04:56:16;98129.75;;;15.72;100.00
21817;BME280;13247;47.504;7.382;2023-06-24T04:59:01;98129.47;;;15.80;100.00
21817;BME280;13247;47.504;7.382;2023-06-24T05:01:45;98130.03;;;15.86;100.00
21817;BME280;13247;47.504;7.382;2023-06-24T05:04:30;98127.19;;;15.92;100.00
21817;BME280;13247;47.504;7.382;2023-06-24T05:07:15;98120.53;;;16.04;100.00
21817;BME280;13247;47.504;7.382;2023-06-24T05:10:00;98126.97;;;16.18;100.00
21817;BME280;13247;47.504;7.382;2023-06-24T05:12:45;98127.72;;;16.22;100.00
21817;BME280;13247;47.504;7.382;2023-06-24T05:15:29;98124.03;;;16.26;100.00
21817;BME280;13247;47.504;7.382;2023-06-24T05:18:14;98128.94;;;16.35;100.00
21817;BME280;13247;47.504;7.382;2023-06-24T05:20:59;98130.13;;;16.06;100.00
21817;BME280;13247;47.504;7.382;2023-06-24T05:23:44;98126.44;;;16.10;100.00
21817;BME280;13247;47.504;7.382;2023-06-24T05:26:28;98125.28;;;16.37;100.00
21817;BME280;13247;47.504;7.382;2023-06-24T05:29:13;98122.72;;;16.36;100.00
21817;BME280;13247;47.504;7.382;2023-06-24T05:31:57;98128.47;;;16.67;100.00
21817;BME280;13247;47.504;7.382;2023-06-24T05:34:43;98133.78;;;16.87;100.00
21817;BME280;13247;47.504;7.382;2023-06-24T05:37:28;98138.25;;;17.05;100.00
21817;BME280;13247;47.504;7.382;2023-06-24T05:40:12;98138.88;;;17.31;100.00
21817;BME280;13247;47.504;7.382;2023-06-24T05:42:58;98131.09;;;17.46;100.00
21817;BME280;13247;47.504;7.382;2023-06-24T05:45:42;98137.81;;;17.35;100.00
21817;BME280;13247;47.504;7.382;2023-06-24T05:48:28;98134.53;;;17.48;100.00
21817;BME280;13247;47.504;7.382;2023-06-24T05:51:12;98143.69;;;17.61;100.00
21817;BME280;13247;47.504;7.382;2023-06-24T05:53:57;98143.69;;;17.61;100.00
21817;BME280;13247;47.504;7.382;2023-06-24T05:56:42;98135.53;;;17.84;100.00
21817;BME280;13247;47.504;7.382;2023-06-24T05:59:26;98133.47;;;18.08;100.00
21817;BME280;13247;47.504;7.382;2023-06-24T06:02:11;98141.44;;;17.89;100.00
21817;BME280;13247;47.504;7.382;2023-06-24T06:04:56;98129.19;;;18.06;100.00
21817;BME280;13247;47.504;7.382;2023-06-24T06:07:40;98139.00;;;18.03;100.00
21817;BME280;13247;47.504;7.382;2023-06-24T06:10:25;98131.53;;;18.12;100.00
21817;BME280;13247;47.504;7.382;2023-06-24T06:13:10;98134.88;;;18.15;100.00
21817;BME280;13247;47.504;7.382;2023-06-24T06:15:55;98135.28;;;18.25;100.00
21817;BME280;13247;47.504;7.382;2023-06-24T06:18:40;98123.91;;;18.40;100.00
21817;BME280;13247;47.504;7.382;2023-06-24T06:21:25;98135.28;;;18.25;100.00
21817;BME280;13247;47.504;7.382;2023-06-24T06:24:10;98120.91;;;18.47;100.00
21817;BME280;13247;47.504;7.382;2023-06-24T06:26:54;98119.19;;;18.80;100.00
21817;BME280;13247;47.504;7.382;2023-06-24T06:29:39;98124.03;;;19.07;100.00
21817;BME280;13247;47.504;7.382;2023-06-24T06:32:24;98120.97;;;18.97;100.00
21817;BME280;13247;47.504;7.382;2023-06-24T06:35:09;98118.00;;;18.86;100.00
21817;BME280;13247;47.504;7.382;2023-06-24T06:37:54;98121.38;;;18.90;100.00
21817;BME280;13247;47.504;7.382;2023-06-24T06:40:39;98122.28;;;19.06;100.00
21817;BME280;13247;47.504;7.382;2023-06-24T06:43:23;98116.50;;;19.47;100.00
21817;BME280;13247;47.504;7.382;2023-06-24T06:46:08;98119.09;;;19.49;100.00
21817;BME280;13247;47.504;7.382;2023-06-24T06:48:52;98114.06;;;19.76;100.00
21817;BME280;13247;47.504;7.382;2023-06-24T06:51:37;98114.06;;;19.76;100.00
21817;BME280;13247;47.504;7.382;2023-06-24T06:54:21;98108.88;;;20.19;100.00
21817;BME280;13247;47.504;7.382;2023-06-24T06:57:06;98108.13;;;20.33;100.00
21817;BME280;13247;47.504;7.382;2023-06-24T06:59:51;98103.75;;;20.01;100.00
21817;BME280;13247;47.504;7.382;2023-06-24T07:02:36;98107.59;;;20.42;100.00
21817;BME280;13247;47.504;7.382;2023-06-24T07:05:21;98107.38;;;20.61;100.00
21817;BME280;13247;47.504;7.382;2023-06-24T07:08:06;98106.88;;;20.98;100.00
21817;BME280;13247;47.504;7.382;2023-06-24T07:10:50;98101.59;;;20.82;100.00
21817;BME280;13247;47.504;7.382;2023-06-24T07:13:35;98107.03;;;21.10;100.00
21817;BME280;13247;47.504;7.382;2023-06-24T07:16:20;98101.13;;;21.34;100.00
21817;BME280;13247;47.504;7.382;2023-06-24T07:19:05;98094.56;;;21.25;100.00
21817;BME280;13247;47.504;7.382;2023-06-24T07:21:49;98094.75;;;21.22;100.00
21817;BME280;13247;47.504;7.382;2023-06-24T07:24:34;98088.25;;;21.12;100.00
21817;BME280;13247;47.504;7.382;2023-06-24T07:27:19;98102.59;;;21.39;98.64
21817;BME280;13247;47.504;7.382;2023-06-24T07:30:05;98095.13;;;21.44;97.73
21817;BME280;13247;47.504;7.382;2023-06-24T07:32:50;98094.72;;;21.50;99.12
21817;BME280;13247;47.504;7.382;2023-06-24T07:35:34;98093.69;;;21.53;100.00
21817;BME280;13247;47.504;7.382;2023-06-24T07:38:19;98099.09;;;21.65;95.91
21817;BME280;13247;47.504;7.382;2023-06-24T07:41:04;98092.31;;;21.88;96.64
21817;BME280;13247;47.504;7.382;2023-06-24T07:43:48;98092.31;;;22.02;94.12
21817;BME280;13247;47.504;7.382;2023-06-24T07:46:33;98095.28;;;21.69;95.60
21817;BME280;13247;47.504;7.382;2023-06-24T07:49:18;98100.94;;;21.51;96.35
21817;BME280;13247;47.504;7.382;2023-06-24T07:52:03;98089.13;;;21.69;96.22
21817;BME280;13247;47.504;7.382;2023-06-24T07:54:49;98087.84;;;21.74;97.27
21817;BME280;13247;47.504;7.382;2023-06-24T07:57:33;98087.19;;;21.85;94.02
21817;BME280;13247;47.504;7.382;2023-06-24T08:00:18;98078.22;;;21.72;95.91
21817;BME280;13247;47.504;7.382;2023-06-24T08:03:04;98083.84;;;21.96;95.36
21817;BME280;13247;47.504;7.382;2023-06-24T08:05:48;98070.81;;;22.30;93.35
21817;BME280;13247;47.504;7.382;2023-06-24T08:08:34;98078.25;;;22.13;94.06
21817;BME280;13247;47.504;7.382;2023-06-24T08:11:19;98066.28;;;22.45;91.53
21817;BME280;13247;47.504;7.382;2023-06-24T08:14:05;98067.53;;;22.39;92.70
21817;BME280;13247;47.504;7.382;2023-06-24T08:16:51;98070.34;;;22.50;87.59
21817;BME280;13247;47.504;7.382;2023-06-24T08:19:35;98069.81;;;22.58;87.01
21817;BME280;13247;47.504;7.382;2023-06-24T08:22:20;98065.81;;;22.78;86.26
21817;BME280;13247;47.504;7.382;2023-06-24T08:25:04;98059.63;;;22.77;84.17
21817;BME280;13247;47.504;7.382;2023-06-24T08:27:49;98063.50;;;23.36;81.01
21817;BME280;13247;47.504;7.382;2023-06-24T08:30:34;98056.00;;;23.16;80.28
21817;BME280;13247;47.504;7.382;2023-06-24T08:33:18;98064.75;;;22.80;83.48
21817;BME280;13247;47.504;7.382;2023-06-24T08:36:03;98059.44;;;22.93;80.45
21817;BME280;13247;47.504;7.382;2023-06-24T08:38:47;98064.75;;;23.56;80.43
21817;BME280;13247;47.504;7.382;2023-06-24T08:41:32;98052.84;;;23.60;81.91
21817;BME280;13247;47.504;7.382;2023-06-24T08:44:17;98056.44;;;23.48;83.20
21817;BME280;13247;47.504;7.382;2023-06-24T08:47:02;98053.63;;;23.49;81.64
21817;BME280;13247;47.504;7.382;2023-06-24T08:49:53;98049.28;;;23.84;79.95
21817;BME280;13247;47.504;7.382;2023-06-24T08:52:45;98046.81;;;24.17;76.56
21817;BME280;13247;47.504;7.382;2023-06-24T08:55:45;98041.97;;;23.86;76.83
21817;BME280;13247;47.504;7.382;2023-06-24T08:58:30;98042.69;;;23.65;79.39
21817;BME280;13247;47.504;7.382;2023-06-24T09:01:15;98037.78;;;24.18;75.72
21817;BME280;13247;47.504;7.382;2023-06-24T09:04:00;98042.56;;;24.50;72.95
21817;BME280;13247;47.504;7.382;2023-06-24T09:06:44;98035.75;;;24.22;75.67
21817;BME280;13247;47.504;7.382;2023-06-24T09:09:29;98032.34;;;24.31;74.95
21817;BME280;13247;47.504;7.382;2023-06-24T09:12:14;98029.00;;;23.80;77.64
21817;BME280;13247;47.504;7.382;2023-06-24T09:14:59;98031.41;;;24.08;74.68
21817;BME280;13247;47.504;7.382;2023-06-24T09:17:47;98024.47;;;24.41;74.79
21817;BME280;13247;47.504;7.382;2023-06-24T09:20:32;98025.19;;;23.95;76.55
21817;BME280;13247;47.504;7.382;2023-06-24T09:23:17;98021.16;;;24.72;75.52
21817;BME280;13247;47.504;7.382;2023-06-24T09:26:02;98031.16;;;25.27;65.65
21817;BME280;13247;47.504;7.382;2023-06-24T09:28:49;98023.81;;;24.61;68.03
21817;BME280;13247;47.504;7.382;2023-06-24T09:31:34;98017.94;;;24.90;68.34
21817;BME280;13247;47.504;7.382;2023-06-24T09:34:19;98018.56;;;25.27;64.26
21817;BME280;13247;47.504;7.382;2023-06-24T09:37:05;98013.66;;;24.77;65.41
21817;BME280;13247;47.504;7.382;2023-06-24T09:39:50;98010.84;;;24.78;67.70
21817;BME280;13247;47.504;7.382;2023-06-24T09:42:34;98005.16;;;25.16;68.16
21817;BME280;13247;47.504;7.382;2023-06-24T09:45:23;98003.19;;;25.62;57.73
21817;BME280;13247;47.504;7.382;2023-06-24T09:48:08;97998.44;;;25.66;58.92
21817;BME280;13247;47.504;7.382;2023-06-24T09:50:58;97998.94;;;25.05;61.20
21817;BME280;13247;47.504;7.382;2023-06-24T09:53:44;98003.44;;;25.04;60.29
21817;BME280;13247;47.504;7.382;2023-06-24T09:56:30;97991.50;;;24.62;64.83
21817;BME280;13247;47.504;7.382;2023-06-24T09:59:17;97983.91;;;24.91;66.79
21817;BME280;13247;47.504;7.382;2023-06-24T10:02:05;97976.97;;;25.44;64.63
21817;BME280;13247;47.504;7.382;2023-06-24T10:04:54;97979.72;;;25.64;62.42
21817;BME280;13247;47.504;7.382;2023-06-24T10:07:40;97978.91;;;25.96;61.83
21817;BME280;13247;47.504;7.382;2023-06-24T10:10:25;97972.00;;;26.25;59.25
21817;BME280;13247;47.504;7.382;2023-06-24T10:13:09;97973.31;;;26.51;57.84
21817;BME280;13247;47.504;7.382;2023-06-24T10:15:56;97974.28;;;25.55;59.88
21817;BME280;13247;47.504;7.382;2023-06-24T10:18:43;97976.69;;;25.69;57.29
21817;BME280;13247;47.504;7.382;2023-06-24T10:21:53;97970.09;;;25.29;60.49
21817;BME280;13247;47.504;7.382;2023-06-24T10:24:40;97966.94;;;25.46;60.39
21817;BME280;13247;47.504;7.382;2023-06-24T10:27:26;97969.03;;;25.42;61.46
21817;BME280;13247;47.504;7.382;2023-06-24T10:30:19;97949.44;;;26.37;56.36
21817;BME280;13247;47.504;7.382;2023-06-24T10:33:10;97947.84;;;26.03;56.39
21817;BME280;13247;47.504;7.382;2023-06-24T10:35:55;97945.63;;;26.81;56.93
21817;BME280;13247;47.504;7.382;2023-06-24T10:38:40;97941.06;;;25.88;61.09
21817;BME280;13247;47.504;7.382;2023-06-24T10:41:25;97932.25;;;26.28;59.10
21817;BME280;13247;47.504;7.382;2023-06-24T10:44:17;97924.03;;;26.51;57.64
21817;BME280;13247;47.504;7.382;2023-06-24T10:47:02;97936.53;;;25.45;59.67
21817;BME280;13247;47.504;7.382;2023-06-24T10:49:46;97934.22;;;25.95;56.92
21817;BME280;13247;47.504;7.382;2023-06-24T10:52:32;97926.16;;;26.98;54.82
21817;BME280;13247;47.504;7.382;2023-06-24T10:55:18;97919.59;;;27.21;55.31
21817;BME280;13247;47.504;7.382;2023-06-24T10:58:10;97921.88;;;27.65;51.52
21817;BME280;13247;47.504;7.382;2023-06-24T11:01:08;97920.72;;;26.68;52.48
21817;BME280;13247;47.504;7.382;2023-06-24T11:03:53;97913.16;;;27.03;54.25
21817;BME280;13247;47.504;7.382;2023-06-24T11:06:38;97910.34;;;27.35;52.90
21817;BME280;13247;47.504;7.382;2023-06-24T11:09:22;97909.16;;;26.97;55.36
21817;BME280;13247;47.504;7.382;2023-06-24T11:12:09;97902.28;;;27.54;52.43
21817;BME280;13247;47.504;7.382;2023-06-24T11:15:01;97904.00;;;26.64;57.12
21817;BME280;13247;47.504;7.382;2023-06-24T11:17:50;97908.56;;;26.43;55.94
21817;BME280;13247;47.504;7.382;2023-06-24T11:20:39;97901.06;;;26.67;52.97
21817;BME280;13247;47.504;7.382;2023-06-24T11:23:23;97891.84;;;26.90;54.34
21817;BME280;13247;47.504;7.382;2023-06-24T11:26:08;97894.22;;;26.01;55.81
21817;BME280;13247;47.504;7.382;2023-06-24T11:28:53;97888.16;;;26.20;57.30
21817;BME280;13247;47.504;7.382;2023-06-24T11:31:38;97889.66;;;26.75;55.76
21817;BME280;13247;47.504;7.382;2023-06-24T11:34:22;97877.44;;;27.50;51.04
21817;BME280;13247;47.504;7.382;2023-06-24T11:37:12;97881.97;;;27.00;53.40
21817;BME280;13247;47.504;7.382;2023-06-24T11:40:07;97871.41;;;27.28;53.20
21817;BME280;13247;47.504;7.382;2023-06-24T11:42:52;97868.97;;;27.74;51.73
21817;BME280;13247;47.504;7.382;2023-06-24T11:45:36;97864.84;;;27.60;53.89
21817;BME280;13247;47.504;7.382;2023-06-24T11:48:21;97862.00;;;27.71;52.90
21817;BME280;13247;47.504;7.382;2023-06-24T11:51:13;97866.50;;;28.47;46.39
21817;BME280;13247;47.504;7.382;2023-06-24T11:54:05;97856.91;;;27.68;48.06
21817;BME280;13247;47.504;7.382;2023-06-24T11:56:51;97853.91;;;28.29;48.87
21817;BME280;13247;47.504;7.382;2023-06-24T11:59:36;97855.00;;;28.45;46.83
21817;BME280;13247;47.504;7.382;2023-06-24T12:02:21;97848.25;;;27.93;49.01
21817;BME280;13247;47.504;7.382;2023-06-24T12:05:06;97842.56;;;27.68;50.52
21817;BME280;13247;47.504;7.382;2023-06-24T12:07:51;97839.03;;;27.96;46.28
21817;BME280;13247;47.504;7.382;2023-06-24T12:10:37;97834.19;;;28.74;46.76
21817;BME280;13247;47.504;7.382;2023-06-24T12:13:22;97838.09;;;28.90;44.90
21817;BME280;13247;47.504;7.382;2023-06-24T12:16:07;97840.16;;;28.13;48.88
21817;BME280;13247;47.504;7.382;2023-06-24T12:18:52;97838.06;;;27.97;49.00
21817;BME280;13247;47.504;7.382;2023-06-24T12:21:37;97833.63;;;27.58;50.27
21817;BME280;13247;47.504;7.382;2023-06-24T12:24:22;97831.56;;;27.21;50.11
21817;BME280;13247;47.504;7.382;2023-06-24T12:27:07;97828.53;;;27.55;49.50
21817;BME280;13247;47.504;7.382;2023-06-24T12:29:51;97823.56;;;27.60;49.02
21817;BME280;13247;47.504;7.382;2023-06-24T12:32:36;97823.72;;;28.52;47.04
21817;BME280;13247;47.504;7.382;2023-06-24T12:35:22;97807.28;;;29.37;45.42
21817;BME280;13247;47.504;7.382;2023-06-24T12:38:09;97804.56;;;29.72;41.24
21817;BME280;13247;47.504;7.382;2023-06-24T12:40:54;97814.22;;;28.48;46.35
21817;BME280;13247;47.504;7.382;2023-06-24T12:43:38;97810.50;;;27.84;48.48
21817;BME280;13247;47.504;7.382;2023-06-24T12:46:23;97817.56;;;28.14;47.62
21817;BME280;13247;47.504;7.382;2023-06-24T12:49:08;97811.06;;;27.59;49.90
21817;BME280;13247;47.504;7.382;2023-06-24T12:51:53;97807.41;;;27.98;47.80
21817;BME280;13247;47.504;7.382;2023-06-24T12:54:37;97802.13;;;27.77;46.50
21817;BME280;13247;47.504;7.382;2023-06-24T12:57:22;97809.38;;;28.15;44.96
21817;BME280;13247;47.504;7.382;2023-06-24T13:00:07;97807.50;;;28.16;44.84
21817;BME280;13247;47.504;7.382;2023-06-24T13:02:53;97800.16;;;28.91;45.21
21817;BME280;13247;47.504;7.382;2023-06-24T13:05:38;97810.03;;;28.36;47.77
21817;BME280;13247;47.504;7.382;2023-06-24T13:08:22;97802.84;;;28.08;47.65
21817;BME280;13247;47.504;7.382;2023-06-24T13:11:07;97804.94;;;28.14;47.30
21817;BME280;13247;47.504;7.382;2023-06-24T13:13:51;97805.38;;;28.56;45.84
21817;BME280;13247;47.504;7.382;2023-06-24T13:16:36;97794.50;;;28.57;44.29
21817;BME280;13247;47.504;7.382;2023-06-24T13:19:21;97785.50;;;29.56;42.60
21817;BME280;13247;47.504;7.382;2023-06-24T13:22:06;97791.06;;;30.07;40.21
21817;BME280;13247;47.504;7.382;2023-06-24T13:24:50;97787.69;;;30.31;40.71
21817;BME280;13247;47.504;7.382;2023-06-24T13:27:35;97785.22;;;29.94;41.44
21817;BME280;13247;47.504;7.382;2023-06-24T13:30:20;97784.38;;;29.59;42.65
21817;BME280;13247;47.504;7.382;2023-06-24T13:33:06;97782.69;;;29.75;43.52
21817;BME280;13247;47.504;7.382;2023-06-24T13:35:52;97779.31;;;29.64;43.77
21817;BME280;13247;47.504;7.382;2023-06-24T13:38:36;97772.22;;;29.80;41.84
21817;BME280;13247;47.504;7.382;2023-06-24T13:41:21;97778.84;;;29.50;42.46
21817;BME280;13247;47.504;7.382;2023-06-24T13:44:06;97774.31;;;29.86;40.92
21817;BME280;13247;47.504;7.382;2023-06-24T13:46:51;97760.84;;;30.46;39.46
21817;BME280;13247;47.504;7.382;2023-06-24T13:49:37;97758.88;;;29.79;40.46
21817;BME280;13247;47.504;7.382;2023-06-24T13:52:22;97762.53;;;29.95;40.34
21817;BME280;13247;47.504;7.382;2023-06-24T13:55:07;97755.81;;;30.51;39.29
21817;BME280;13247;47.504;7.382;2023-06-24T13:57:51;97752.75;;;30.20;42.07
21817;BME280;13247;47.504;7.382;2023-06-24T14:00:36;97748.13;;;29.34;41.94
21817;BME280;13247;47.504;7.382;2023-06-24T14:03:20;97745.31;;;30.22;40.97
21817;BME280;13247;47.504;7.382;2023-06-24T14:06:05;97751.50;;;30.14;41.93
21817;BME280;13247;47.504;7.382;2023-06-24T14:08:50;97737.19;;;30.81;39.16
21817;BME280;13247;47.504;7.382;2023-06-24T14:11:35;97742.03;;;30.36;39.71
21817;BME280;13247;47.504;7.382;2023-06-24T14:14:20;97734.94;;;30.09;39.19
21817;BME280;13247;47.504;7.382;2023-06-24T14:17:06;97737.56;;;29.76;42.20
21817;BME280;13247;47.504;7.382;2023-06-24T14:19:53;97731.41;;;29.91;40.79
21817;BME280;13247;47.504;7.382;2023-06-24T14:22:37;97725.34;;;29.97;39.89
21817;BME280;13247;47.504;7.382;2023-06-24T14:25:22;97720.31;;;30.02;41.73
21817;BME280;13247;47.504;7.382;2023-06-24T14:28:07;97725.72;;;30.87;38.41
21817;BME280;13247;47.504;7.382;2023-06-24T14:30:52;97718.19;;;30.40;39.22
21817;BME280;13247;47.504;7.382;2023-06-24T14:33:37;97707.44;;;30.89;38.53
21817;BME280;13247;47.504;7.382;2023-06-24T14:36:21;97700.25;;;31.62;38.34
21817;BME280;13247;47.504;7.382;2023-06-24T14:39:06;97695.81;;;31.21;38.59
21817;BME280;13247;47.504;7.382;2023-06-24T14:41:50;97700.00;;;30.24;39.32
21817;BME280;13247;47.504;7.382;2023-06-24T14:44:35;97702.53;;;29.74;41.91
21817;BME280;13247;47.504;7.382;2023-06-24T14:47:19;97694.66;;;30.82;38.71
21817;BME280;13247;47.504;7.382;2023-06-24T14:50:04;97688.56;;;31.54;37.28